Home > Products > Valid Products > TAF

000
FTUS46 KMFR 031739
TAFRBG
TAF
KRBG 031739Z 0318/0418 00000KT P6SM OVC002
     FM031830 VRB03KT P6SM SCT002 BKN012 BKN200
     FM031900 VRB03KT P6SM SCT012 SCT200
     FM032200 36008KT P6SM SKC
     FM040300 VRB02KT P6SM SKC
     FM041400 00000KT 1/2SM FG VV002=



000
FTUS46 KMFR 031739
TAFLMT
TAF
KLMT 031739Z 0318/0418 35007KT P6SM SCT050=



000
FTUS46 KMFR 031739
TAFRBG
TAF
KRBG 031739Z 0318/0418 00000KT P6SM OVC002
     FM031830 VRB03KT P6SM SCT002 BKN012 BKN200
     FM031900 VRB03KT P6SM SCT012 SCT200
     FM032200 36008KT P6SM SKC
     FM040300 VRB02KT P6SM SKC
     FM041400 00000KT 1/2SM FG VV002=



000
FTUS46 KMFR 031739
TAFLMT
TAF
KLMT 031739Z 0318/0418 35007KT P6SM SCT050=



000
FTUS46 KMFR 031739
TAFMFR
TAF
KMFR 031739Z 0318/0418 VRB02KT P6SM FEW070 SCT200
     FM032200 32006KT P6SM SKC=



000
FTUS46 KMFR 031739
TAFMFR
TAF
KMFR 031739Z 0318/0418 VRB02KT P6SM FEW070 SCT200
     FM032200 32006KT P6SM SKC=



000
FTUS46 KMFR 031739
TAFOTH
TAF
KOTH 031739Z 0318/0418 04006KT P6SM BKN200
     FM032000 36010KT P6SM SCT200
     FM032200 36012G18KT P6SM SKC
     FM040300 05006KT P6SM SKC=



000
FTUS46 KMFR 031739
TAFOTH
TAF
KOTH 031739Z 0318/0418 04006KT P6SM BKN200
     FM032000 36010KT P6SM SCT200
     FM032200 36012G18KT P6SM SKC
     FM040300 05006KT P6SM SKC=



000
FTUS46 KMFR 031720 AAA
TAFRBG
TAF AMD
KRBG 031720Z 0317/0412 00000KT P6SM OVC002
     FM031830 VRB03KT P6SM SCT002 BKN012
     FM031900 VRB03KT P6SM SCT012
     FM032200 36008KT P6SM SKC
     FM040300 VRB02KT P6SM SKC=



000
FTUS46 KMFR 031720 AAA
TAFRBG
TAF AMD
KRBG 031720Z 0317/0412 00000KT P6SM OVC002
     FM031830 VRB03KT P6SM SCT002 BKN012
     FM031900 VRB03KT P6SM SCT012
     FM032200 36008KT P6SM SKC
     FM040300 VRB02KT P6SM SKC=



000
FTUS46 KMFR 031142
TAFLMT
TAF
KLMT 031142Z 0312/0412 VRB03KT P6SM SCT060
     FM032200 35007KT P6SM SKC=



000
FTUS46 KMFR 031142
TAFOTH
TAF
KOTH 031142Z 0312/0412 13003KT 1/2SM FG OVC002
     FM031600 05005KT 5SM BR SCT006
     FM031700 04005KT P6SM SKC
     FM032000 36010KT P6SM SKC
     FM032300 36012G18KT P6SM SKC
     FM040300 05006KT P6SM SKC=



000
FTUS46 KMFR 031142
TAFRBG
TAF
KRBG 031142Z 0312/0412 VRB02KT P6SM FEW005
      TEMPO 0313/0317 2SM BR BKN005
     FM031800 VRB03KT P6SM SCT012
     FM032200 36008KT P6SM SKC
     FM040300 VRB02KT P6SM SKC=



000
FTUS46 KMFR 031142
TAFMFR
TAF
KMFR 031142Z 0312/0412 VRB02KT P6SM SCT050
     FM032200 32006KT P6SM SKC=



000
FTUS46 KMFR 031142
TAFLMT
TAF
KLMT 031142Z 0312/0412 VRB03KT P6SM SCT060
     FM032200 35007KT P6SM SKC=



000
FTUS46 KMFR 031142
TAFRBG
TAF
KRBG 031142Z 0312/0412 VRB02KT P6SM FEW005
      TEMPO 0313/0317 2SM BR BKN005
     FM031800 VRB03KT P6SM SCT012
     FM032200 36008KT P6SM SKC
     FM040300 VRB02KT P6SM SKC=



000
FTUS46 KMFR 031142
TAFMFR
TAF
KMFR 031142Z 0312/0412 VRB02KT P6SM SCT050
     FM032200 32006KT P6SM SKC=



000
FTUS46 KMFR 031142
TAFOTH
TAF
KOTH 031142Z 0312/0412 13003KT 1/2SM FG OVC002
     FM031600 05005KT 5SM BR SCT006
     FM031700 04005KT P6SM SKC
     FM032000 36010KT P6SM SKC
     FM032300 36012G18KT P6SM SKC
     FM040300 05006KT P6SM SKC=



000
FTUS46 KMFR 030841 AAA
TAFOTH
TAF AMD
KOTH 030841Z 0309/0406 13003KT 1/2SM FG OVC002
     FM031500 05005KT 5SM BR SCT006
     FM031700 04005KT P6SM SKC
     FM032000 36010KT P6SM SKC
     FM032300 36012G18KT P6SM SKC
     FM040300 VRB04KT P6SM SKC=



000
FTUS46 KMFR 030841 AAA
TAFOTH
TAF AMD
KOTH 030841Z 0309/0406 13003KT 1/2SM FG OVC002
     FM031500 05005KT 5SM BR SCT006
     FM031700 04005KT P6SM SKC
     FM032000 36010KT P6SM SKC
     FM032300 36012G18KT P6SM SKC
     FM040300 VRB04KT P6SM SKC=



000
FTUS46 KMFR 030539
TAFRBG
TAF
KRBG 030539Z 0306/0406 VRB02KT P6SM BKN050
     FM031300 00000KT 1SM BR BKN003
     FM031800 VRB03KT P6SM SCT003
     FM032200 36008KT P6SM SKC
     FM040300 VRB02KT P6SM SKC=



000
FTUS46 KMFR 030539
TAFMFR
TAF
KMFR 030539Z 0306/0406 VRB02KT P6SM SCT050
     FM032200 32006KT P6SM SKC=



000
FTUS46 KMFR 030539
TAFOTH
TAF
KOTH 030539Z 0306/0406 13004KT P6SM SKC
     FM032000 36010KT P6SM SKC
     FM032300 36012G18KT P6SM SKC
     FM040300 VRB04KT P6SM SKC=



000
FTUS46 KMFR 030539
TAFLMT
TAF
KLMT 030539Z 0306/0406 VRB03KT P6SM SCT060
     FM032200 35007KT P6SM SKC=



000
FTUS46 KMFR 030539
TAFRBG
TAF
KRBG 030539Z 0306/0406 VRB02KT P6SM BKN050
     FM031300 00000KT 1SM BR BKN003
     FM031800 VRB03KT P6SM SCT003
     FM032200 36008KT P6SM SKC
     FM040300 VRB02KT P6SM SKC=



000
FTUS46 KMFR 030539
TAFMFR
TAF
KMFR 030539Z 0306/0406 VRB02KT P6SM SCT050
     FM032200 32006KT P6SM SKC=



000
FTUS46 KMFR 030539
TAFOTH
TAF
KOTH 030539Z 0306/0406 13004KT P6SM SKC
     FM032000 36010KT P6SM SKC
     FM032300 36012G18KT P6SM SKC
     FM040300 VRB04KT P6SM SKC=



000
FTUS46 KMFR 030539
TAFLMT
TAF
KLMT 030539Z 0306/0406 VRB03KT P6SM SCT060
     FM032200 35007KT P6SM SKC=



000
FTUS46 KMFR 022345
TAFLMT
TAF
KLMT 022345Z 0300/0324 34010KT P6SM SCT060 SCT100
     FM030400 34006KT P6SM BKN060
     FM031200 02003KT P6SM BKN030
     FM031800 36005KT P6SM SCT030=



000
FTUS46 KMFR 022345
TAFMFR
TAF
KMFR 022345Z 0300/0324 33005KT P6SM SCT060
     FM030300 VRB03KT P6SM SCT040
     FM030600 VRB03KT P6SM BKN025
     FM031800 VRB03KT P6SM SKC=



000
FTUS46 KMFR 022345
TAFRBG
TAF
KRBG 022345Z 0300/0324 36008KT P6SM FEW025 BKN035
     FM030300 VRB03KT P6SM SCT035
     FM031300 00000KT 1SM BR BKN003
     FM031800 VRB03KT 5SM BR SCT003=



000
FTUS46 KMFR 022345
TAFOTH
TAF
KOTH 022345Z 0300/0324 35013KT P6SM BKN045
     FM030300 36008KT P6SM BKN035
     FM030600 06005KT P6SM BKN030
     FM030900 12005KT P6SM SKC
     FM032000 36010KT P6SM SKC=



000
FTUS46 KMFR 022345
TAFMFR
TAF
KMFR 022345Z 0300/0324 33005KT P6SM SCT060
     FM030300 VRB03KT P6SM SCT040
     FM030600 VRB03KT P6SM BKN025
     FM031800 VRB03KT P6SM SKC=



000
FTUS46 KMFR 022345
TAFRBG
TAF
KRBG 022345Z 0300/0324 36008KT P6SM FEW025 BKN035
     FM030300 VRB03KT P6SM SCT035
     FM031300 00000KT 1SM BR BKN003
     FM031800 VRB03KT 5SM BR SCT003=



000
FTUS46 KMFR 022345
TAFLMT
TAF
KLMT 022345Z 0300/0324 34010KT P6SM SCT060 SCT100
     FM030400 34006KT P6SM BKN060
     FM031200 02003KT P6SM BKN030
     FM031800 36005KT P6SM SCT030=



000
FTUS46 KMFR 022345
TAFOTH
TAF
KOTH 022345Z 0300/0324 35013KT P6SM BKN045
     FM030300 36008KT P6SM BKN035
     FM030600 06005KT P6SM BKN030
     FM030900 12005KT P6SM SKC
     FM032000 36010KT P6SM SKC=



000
FTUS46 KMFR 022133 AAC
TAFRBG
TAF AMD
KRBG 022133Z 0222/0318 35003KT P6SM FEW020 OVC035
     FM022300 36008KT P6SM FEW025 BKN035
     FM030300 VRB03KT P6SM SCT035
     FM031300 00000KT 1SM BR BKN003=



000
FTUS46 KMFR 022131 CCA
TAFMFR
TAF COR
KMFR 022131Z 0222/0318 33005KT P6SM SCT060
     FM030300 VRB03KT P6SM SCT040=



000
FTUS46 KMFR 022130 AAC
TAFMFR
TAF AMD
KMFR 022130Z 0222/0318 33005KT P6SM SKC
     FM030300 VRB03KT P6SM SCT040=



000
FTUS46 KMFR 022006 AAB
TAFRBG
TAF AMD
KRBG 022006Z 0220/0318 35003KT P6SM BKN020 OVC035
     FM022200 36010KT P6SM SCT025 BKN035
     FM030300 VRB03KT P6SM FEW035
     FM031300 00000KT 1SM BR BKN003=



000
FTUS46 KMFR 022006 AAB
TAFRBG
TAF AMD
KRBG 022006Z 0220/0318 35003KT P6SM BKN020 OVC035
     FM022200 36010KT P6SM SCT025 BKN035
     FM030300 VRB03KT P6SM FEW035
     FM031300 00000KT 1SM BR BKN003=



000
FTUS46 KMFR 021758 AAA
TAFRBG
TAF AMD
KRBG 021758Z 0218/0318 00000KT P6SM SCT015 OVC040
      TEMPO 0218/0220 BKN015
     FM022000 35005KT P6SM FEW015 BKN040
     FM022200 36010KT P6SM SCT040
     FM030300 VRB03KT P6SM FEW035
     FM031300 00000KT 1SM BR BKN003=



000
FTUS46 KMFR 021758 AAA
TAFRBG
TAF AMD
KRBG 021758Z 0218/0318 00000KT P6SM SCT015 OVC040
      TEMPO 0218/0220 BKN015
     FM022000 35005KT P6SM FEW015 BKN040
     FM022200 36010KT P6SM SCT040
     FM030300 VRB03KT P6SM FEW035
     FM031300 00000KT 1SM BR BKN003=



000
FTUS46 KMFR 021743
TAFOTH
TAF
KOTH 021743Z 0218/0318 01006KT P6SM SCT025 BKN035
      TEMPO 0218/0220 BKN025 OVC035
     FM022100 35013KT P6SM SCT035
     FM030200 02008KT P6SM FEW035=



000
FTUS46 KMFR 021743
TAFMFR
TAF
KMFR 021743Z 0218/0318 VRB03KT P6SM SCT070
     FM022000 33005KT P6SM FEW060 SCT100
     FM030300 VRB03KT P6SM FEW060=



000
FTUS46 KMFR 021743
TAFLMT
TAF
KLMT 021743Z 0218/0318 33005KT P6SM SCT120
     FM022300 34010KT P6SM SCT060 SCT100
     FM030400 34006KT P6SM FEW060
     FM031200 02003KT P6SM SKC=



000
FTUS46 KMFR 021743
TAFRBG
TAF
KRBG 021743Z 0218/0318 00000KT P6SM SCT008 OVC040
     FM022000 35005KT P6SM FEW015 BKN040
     FM022200 36010KT P6SM SCT040
     FM030300 VRB03KT P6SM FEW035
     FM031300 00000KT 1SM BR BKN003=



000
FTUS46 KMFR 021743
TAFMFR
TAF
KMFR 021743Z 0218/0318 VRB03KT P6SM SCT070
     FM022000 33005KT P6SM FEW060 SCT100
     FM030300 VRB03KT P6SM FEW060=



000
FTUS46 KMFR 021743
TAFLMT
TAF
KLMT 021743Z 0218/0318 33005KT P6SM SCT120
     FM022300 34010KT P6SM SCT060 SCT100
     FM030400 34006KT P6SM FEW060
     FM031200 02003KT P6SM SKC=



000
FTUS46 KMFR 021743
TAFOTH
TAF
KOTH 021743Z 0218/0318 01006KT P6SM SCT025 BKN035
      TEMPO 0218/0220 BKN025 OVC035
     FM022100 35013KT P6SM SCT035
     FM030200 02008KT P6SM FEW035=



000
FTUS46 KMFR 021743
TAFRBG
TAF
KRBG 021743Z 0218/0318 00000KT P6SM SCT008 OVC040
     FM022000 35005KT P6SM FEW015 BKN040
     FM022200 36010KT P6SM SCT040
     FM030300 VRB03KT P6SM FEW035
     FM031300 00000KT 1SM BR BKN003=



000
FTUS46 KMFR 021725 AAC
TAFOTH
TAF AMD
KOTH 021725Z 0217/0312 01005KT P6SM SCT025 BKN035
      TEMPO 0217/0220 BKN025 OVC035
     FM022000 35013KT P6SM SCT035 SCT040=



000
FTUS46 KMFR 021725 AAC
TAFOTH
TAF AMD
KOTH 021725Z 0217/0312 01005KT P6SM SCT025 BKN035
      TEMPO 0217/0220 BKN025 OVC035
     FM022000 35013KT P6SM SCT035 SCT040=



000
FTUS46 KMFR 021722 AAC
TAFRBG
TAF AMD
KRBG 021722Z 0217/0312 00000KT P6SM SCT006 OVC040
     FM022000 35005KT P6SM BKN040
     FM022100 36010KT P6SM SCT050 BKN100=



000
FTUS46 KMFR 021720 AAB
TAFOTH
TAF AMD
KOTH 021720Z 0217/0312 01005KT P6SM SCT020 BKN035
     FM022000 35013KT P6SM SCT035 SCT050=



000
FTUS46 KMFR 021522 AAB
TAFRBG
TAF AMD
KRBG 021522Z 0215/0312 00000KT 6SM -RA BKN027 OVC050
      TEMPO 0215/0217 BKN010 OVC040
     FM021800 35005KT P6SM VCSH BKN035
     FM022100 36010KT P6SM SCT050 BKN100=



000
FTUS46 KMFR 021332 AAA
TAFOTH
TAF AMD
KOTH 021332Z 0214/0312 00000KT 6SM -SHRA BR BKN004 OVC020
      TEMPO 0214/0215 SCT004 OVC020
     FM021500 09005KT 6SM -RA BKN020 OVC035
     FM021800 35013KT P6SM SCT030 BKN050=



000
FTUS46 KMFR 021332 AAA
TAFOTH
TAF AMD
KOTH 021332Z 0214/0312 00000KT 6SM -SHRA BR BKN004 OVC020
      TEMPO 0214/0215 SCT004 OVC020
     FM021500 09005KT 6SM -RA BKN020 OVC035
     FM021800 35013KT P6SM SCT030 BKN050=



000
FTUS46 KMFR 021249 AAA
TAFRBG
TAF AMD
KRBG 021249Z 0213/0312 00000KT 6SM -RA BKN027 OVC050
      TEMPO 0213/0215 SCT025 OVC040
     FM021800 35005KT P6SM VCSH BKN035
     FM022100 36010KT P6SM SCT050 BKN100=



000
FTUS46 KMFR 021140
TAFOTH
TAF
KOTH 021140Z 0212/0312 00000KT P6SM -SHRA FEW026 OVC035
     FM021400 09005KT 6SM -RA BKN020 OVC035
     FM021800 35013KT P6SM SCT030=



000
FTUS46 KMFR 021140
TAFLMT
TAF
KLMT 021140Z 0212/0312 32003KT P6SM FEW060 BKN120
     FM022100 34010KT P6SM FEW200=



000
FTUS46 KMFR 021140
TAFMFR
TAF
KMFR 021140Z 0212/0312 VRB03KT P6SM BKN060 OVC120
     FM022000 32010KT P6SM FEW050 SCT150=



000
FTUS46 KMFR 021140
TAFRBG
TAF
KRBG 021140Z 0212/0312 36003KT P6SM SCT030 OVC060
     FM021200 36002KT P6SM -SHRA SCT006 BKN015 OVC040
     FM021700 35005KT P6SM BKN035
     FM022000 36010KT P6SM SCT050 BKN100=



000
FTUS46 KMFR 021140
TAFRBG
TAF
KRBG 021140Z 0212/0312 36003KT P6SM SCT030 OVC060
     FM021200 36002KT P6SM -SHRA SCT006 BKN015 OVC040
     FM021700 35005KT P6SM BKN035
     FM022000 36010KT P6SM SCT050 BKN100=



000
FTUS46 KMFR 021140
TAFMFR
TAF
KMFR 021140Z 0212/0312 VRB03KT P6SM BKN060 OVC120
     FM022000 32010KT P6SM FEW050 SCT150=



000
FTUS46 KMFR 021140
TAFLMT
TAF
KLMT 021140Z 0212/0312 32003KT P6SM FEW060 BKN120
     FM022100 34010KT P6SM FEW200=



000
FTUS46 KMFR 021140
TAFOTH
TAF
KOTH 021140Z 0212/0312 00000KT P6SM -SHRA FEW026 OVC035
     FM021400 09005KT 6SM -RA BKN020 OVC035
     FM021800 35013KT P6SM SCT030=



000
FTUS46 KMFR 021111 AAA
TAFOTH
TAF AMD
KOTH 021111Z 0211/0306 02005KT 6SM -RA FEW006 BKN025 OVC035
      TEMPO 0211/0213 SCT025 OVC035
     FM021400 09005KT 6SM -RA BKN020 OVC035
     FM021800 35013KT P6SM SCT030=



000
FTUS46 KMFR 021106 AAA
TAFRBG
TAF AMD
KRBG 021106Z 0211/0306 36003KT P6SM SCT030 OVC060
     FM021200 36002KT P6SM -SHRA SCT006 BKN015 OVC040
     FM021700 35005KT P6SM BKN035
     FM022000 36010KT P6SM SCT050 BKN100=



000
FTUS46 KMFR 020539
TAFRBG
TAF
KRBG 020539Z 0206/0306 36003KT P6SM OVC150
     FM021000 36002KT P6SM BKN012 OVC100
     FM021200 36002KT 6SM BR VCSH SCT006 BKN015 OVC040
     FM021900 35005KT P6SM BKN035
     FM022200 36010KT P6SM SCT050 BKN100=



000
FTUS46 KMFR 020539
TAFMFR
TAF
KMFR 020539Z 0206/0306 VRB03KT P6SM OVC200
     FM022200 32010KT P6SM SCT050=



000
FTUS46 KMFR 020539
TAFLMT
TAF
KLMT 020539Z 0206/0306 VRB03KT P6SM BKN150
     FM022100 32010KT P6SM FEW200=



000
FTUS46 KMFR 020539
TAFRBG
TAF
KRBG 020539Z 0206/0306 36003KT P6SM OVC150
     FM021000 36002KT P6SM BKN012 OVC100
     FM021200 36002KT 6SM BR VCSH SCT006 BKN015 OVC040
     FM021900 35005KT P6SM BKN035
     FM022200 36010KT P6SM SCT050 BKN100=



000
FTUS46 KMFR 020539
TAFOTH
TAF
KOTH 020539Z 0206/0306 02005KT P6SM BKN025 BKN050 BKN100
     FM020900 09005KT P6SM -RA BKN020 OVC035
     FM022100 35012KT P6SM SCT030=



000
FTUS46 KMFR 020539
TAFMFR
TAF
KMFR 020539Z 0206/0306 VRB03KT P6SM OVC200
     FM022200 32010KT P6SM SCT050=



000
FTUS46 KMFR 020539
TAFLMT
TAF
KLMT 020539Z 0206/0306 VRB03KT P6SM BKN150
     FM022100 32010KT P6SM FEW200=



000
FTUS46 KMFR 020539
TAFOTH
TAF
KOTH 020539Z 0206/0306 02005KT P6SM BKN025 BKN050 BKN100
     FM020900 09005KT P6SM -RA BKN020 OVC035
     FM022100 35012KT P6SM SCT030=



000
FTUS46 KMFR 020306 AAA
TAFOTH
TAF AMD
KOTH 020306Z 0203/0224 36010G18KT P6SM BKN020 BKN100
     FM020900 09006KT P6SM -RA BKN020 OVC035
     FM022100 35012KT P6SM SCT030=



000
FTUS46 KMFR 020306 AAA
TAFOTH
TAF AMD
KOTH 020306Z 0203/0224 36010G18KT P6SM BKN020 BKN100
     FM020900 09006KT P6SM -RA BKN020 OVC035
     FM022100 35012KT P6SM SCT030=



000
FTUS46 KMFR 012327
TAFLMT
TAF
KLMT 012327Z 0200/0224 02004KT P6SM SKC
     FM020100 VRB03KT P6SM FEW200
     FM022100 32010KT P6SM FEW200=



000
FTUS46 KMFR 012327
TAFRBG
TAF
KRBG 012327Z 0200/0224 36006KT P6SM SCT200
     FM020400 VRB03KT P6SM BKN120
     FM021000 36002KT P6SM BKN012 OVC100
     FM021200 36002KT 6SM BR VCSH SCT006 BKN015 OVC040
     FM021900 35005KT P6SM BKN035=



000
FTUS46 KMFR 012327
TAFMFR
TAF
KMFR 012327Z 0200/0224 35004KT P6SM FEW200
     FM020200 VRB02KT P6SM SCT200
     FM021500 VRB03KT P6SM FEW015 SCT050 OVC080
     FM022200 34010KT P6SM SCT050=



000
FTUS46 KMFR 012327
TAFOTH
TAF
KOTH 012327Z 0200/0224 35012G16KT P6SM SCT200
     FM020300 36010KT P6SM SCT015 BKN120
     FM020600 36008KT P6SM BKN020 BKN100
     FM020900 09006KT P6SM -RA BKN020 OVC035
     FM022100 35012KT P6SM SCT030=



000
FTUS46 KMFR 011729
TAFOTH
TAF
KOTH 011729Z 0118/0218 02007KT P6SM SKC
     FM012200 35012G16KT P6SM SCT200
     FM020300 36010KT P6SM SCT015 BKN120
     FM020600 36008KT P6SM BKN020 BKN100
     FM021200 01006KT P6SM -RA BKN020 OVC035=



000
FTUS46 KMFR 011729
TAFLMT
TAF
KLMT 011729Z 0118/0218 02004KT P6SM SKC
     FM020100 VRB03KT P6SM FEW200=



000
FTUS46 KMFR 011729
TAFMFR
TAF
KMFR 011729Z 0118/0218 VRB02KT P6SM SKC
     FM012300 35004KT P6SM FEW200
     FM020200 VRB02KT P6SM SCT200
     FM021500 VRB03KT P6SM FEW015 SCT050 OVC080=



000
FTUS46 KMFR 011729
TAFRBG
TAF
KRBG 011729Z 0118/0218 VRB03KT 6SM BR SCT003
     FM011830 36004KT P6SM SKC
     FM012200 36006KT P6SM SCT200
     FM020400 VRB03KT P6SM BKN120
     FM021000 36002KT P6SM BKN012 OVC100
     FM021400 36002KT 6SM BR VCSH SCT006 BKN015 OVC040=



000
FTUS46 KMFR 011658 AAB
TAFRBG
TAF AMD
KRBG 011658Z 0117/0212 00000KT 3/4SM BR OVC002
     FM011730 VRB03KT 3SM BR SCT005
     FM011800 VRB03KT P6SM SKC
     FM012200 36008KT P6SM SCT200
     FM020400 VRB03KT P6SM BKN120=



000
FTUS46 KMFR 011658 AAB
TAFRBG
TAF AMD
KRBG 011658Z 0117/0212 00000KT 3/4SM BR OVC002
     FM011730 VRB03KT 3SM BR SCT005
     FM011800 VRB03KT P6SM SKC
     FM012200 36008KT P6SM SCT200
     FM020400 VRB03KT P6SM BKN120=



000
FTUS46 KMFR 011548 AAA
TAFRBG
TAF AMD
KRBG 011548Z 0116/0212 00000KT 1/2SM FG VV002
     FM011700 00000KT 4SM BR SCT005
     FM011800 VRB03KT P6SM SKC
     FM012200 36008KT P6SM SCT200
     FM020400 VRB03KT P6SM BKN120=



000
FTUS46 KMFR 011139
TAFLMT
TAF
KLMT 011139Z 0112/0212 02006KT P6SM SKC=



000
FTUS46 KMFR 011139
TAFOTH
TAF
KOTH 011139Z 0112/0212 12005KT P6SM SKC
     FM012200 35012KT P6SM SCT200
     FM020400 01006KT P6SM BKN120=



000
FTUS46 KMFR 011139
TAFMFR
TAF
KMFR 011139Z 0112/0212 VRB03KT P6SM SKC=



000
FTUS46 KMFR 011139
TAFRBG
TAF
KRBG 011139Z 0112/0212 VRB03KT P6SM SKC
     FM012200 36008KT P6SM SCT200
     FM020400 VRB03KT P6SM BKN120=



000
FTUS46 KMFR 010538
TAFMFR
TAF
KMFR 010538Z 0106/0206 VRB04KT P6SM SKC=



000
FTUS46 KMFR 010538
TAFOTH
TAF
KOTH 010538Z 0106/0206 09005KT P6SM SKC
     FM012200 35012KT P6SM SKC=



000
FTUS46 KMFR 010538
TAFLMT
TAF
KLMT 010538Z 0106/0206 02006KT P6SM SKC=



000
FTUS46 KMFR 010538
TAFMFR
TAF
KMFR 010538Z 0106/0206 VRB04KT P6SM SKC=



000
FTUS46 KMFR 010538
TAFRBG
TAF
KRBG 010538Z 0106/0206 VRB03KT P6SM SKC
     FM012200 36008KT P6SM SKC=



000
FTUS46 KMFR 010538
TAFOTH
TAF
KOTH 010538Z 0106/0206 09005KT P6SM SKC
     FM012200 35012KT P6SM SKC=



000
FTUS46 KMFR 010538
TAFLMT
TAF
KLMT 010538Z 0106/0206 02006KT P6SM SKC=



000
FTUS46 KMFR 010538
TAFRBG
TAF
KRBG 010538Z 0106/0206 VRB03KT P6SM SKC
     FM012200 36008KT P6SM SKC=



000
FTUS46 KMFR 282335
TAFOTH
TAF
KOTH 282335Z 0100/0124 03008KT P6SM SKC
     FM010700 09005KT P6SM SKC
     FM012200 35012KT P6SM SKC=



000
FTUS46 KMFR 282335
TAFLMT
TAF
KLMT 282335Z 0100/0124 05010G15KT P6SM FEW050
     FM010800 02006KT P6SM SKC=



000
FTUS46 KMFR 282335
TAFRBG
TAF
KRBG 282335Z 0100/0124 36008KT P6SM SKC
     FM010300 VRB03KT P6SM SKC=



000
FTUS46 KMFR 282335
TAFMFR
TAF
KMFR 282335Z 0100/0124 35005KT P6SM FEW020
     FM010300 VRB03KT P6SM SKC=



000
FTUS46 KMFR 282335
TAFLMT
TAF
KLMT 282335Z 0100/0124 05010G15KT P6SM FEW050
     FM010800 02006KT P6SM SKC=



000
FTUS46 KMFR 282335
TAFOTH
TAF
KOTH 282335Z 0100/0124 03008KT P6SM SKC
     FM010700 09005KT P6SM SKC
     FM012200 35012KT P6SM SKC=



000
FTUS46 KMFR 282335
TAFMFR
TAF
KMFR 282335Z 0100/0124 35005KT P6SM FEW020
     FM010300 VRB03KT P6SM SKC=



000
FTUS46 KMFR 282335
TAFRBG
TAF
KRBG 282335Z 0100/0124 36008KT P6SM SKC
     FM010300 VRB03KT P6SM SKC=



    US Dept of Commerce
    National Oceanic and Atmospheric Administration
    National Weather Service
    1325 East West Highway
    Silver Spring, MD 20910
    Page Author: NWS Internet Services Team
Disclaimer
Information Quality
Credits
Glossary
Privacy Policy
Freedom of Information Act (FOIA)
About Us
Career Opportunities